createdAt,value
2022-09-15T00:00:03.722Z,24.50
2022-09-15T00:01:03.691Z,33.30
2022-09-15T00:02:03.839Z,31.20
2022-09-15T00:03:03.775Z,28.80
2022-09-15T00:04:03.657Z,25.50
2022-09-15T00:05:03.667Z,23.90
2022-09-15T00:06:03.627Z,22.10
2022-09-15T00:07:03.615Z,19.90
2022-09-15T00:08:03.615Z,25.90
2022-09-15T00:09:03.615Z,21.60
2022-09-15T00:10:03.599Z,24.20
2022-09-15T00:11:03.581Z,21.00
2022-09-15T00:12:03.601Z,20.40
2022-09-15T00:13:03.548Z,22.00
2022-09-15T00:14:03.593Z,20.20
2022-09-15T00:15:03.676Z,21.40
2022-09-15T00:16:03.508Z,16.70
2022-09-15T00:17:03.566Z,17.20
2022-09-15T00:18:03.549Z,19.60
2022-09-15T00:19:03.969Z,21.00
2022-09-15T00:20:03.468Z,28.50
2022-09-15T00:21:03.544Z,30.40
2022-09-15T00:22:03.480Z,21.90
2022-09-15T00:23:03.452Z,23.50
2022-09-15T00:24:03.428Z,69.10
2022-09-15T00:25:03.400Z,26.90
2022-09-15T00:26:03.412Z,19.90
2022-09-15T00:27:03.409Z,22.90
2022-09-15T00:28:03.389Z,21.00
2022-09-15T00:29:03.373Z,19.90
2022-09-15T00:30:03.580Z,18.80
2022-09-15T00:31:03.524Z,21.20
2022-09-15T00:32:03.401Z,25.00
2022-09-15T00:33:03.826Z,19.90
2022-09-15T00:34:03.295Z,16.20
2022-09-15T00:35:03.333Z,22.20
2022-09-15T00:36:03.308Z,18.20
2022-09-15T00:37:03.294Z,27.10
2022-09-15T00:38:03.269Z,18.90
2022-09-15T00:39:03.273Z,25.20
2022-09-15T00:40:03.332Z,13.80
2022-09-15T00:41:03.277Z,15.00
2022-09-15T00:42:03.234Z,15.00
2022-09-15T00:43:03.217Z,15.30
2022-09-15T00:44:03.198Z,15.20
2022-09-15T00:45:03.204Z,19.70
2022-09-15T00:46:03.191Z,19.30
2022-09-15T00:47:18.844Z,22.50
2022-09-15T00:48:05.130Z,26.10
2022-09-15T00:49:03.157Z,19.50
2022-09-15T00:50:03.110Z,17.10
2022-09-15T00:51:03.161Z,18.20
2022-09-15T00:52:03.120Z,26.60
2022-09-15T00:53:03.117Z,18.00
2022-09-15T00:54:03.074Z,96.50
2022-09-15T00:55:03.080Z,18.40
2022-09-15T00:56:03.067Z,18.60
2022-09-15T00:57:03.052Z,18.20
2022-09-15T00:58:03.025Z,20.00
2022-09-15T00:59:03.049Z,19.30
2022-09-15T01:00:03.055Z,20.40
2022-09-15T01:01:03.139Z,24.10
2022-09-15T01:02:03.081Z,22.40
2022-09-15T01:03:03.006Z,27.10
2022-09-15T01:04:03.026Z,42.20
2022-09-15T01:05:02.983Z,24.00
2022-09-15T01:06:02.912Z,175.70
2022-09-15T01:07:03.131Z,27.60
2022-09-15T01:08:02.907Z,18.80
2022-09-15T01:09:02.943Z,20.10
2022-09-15T01:10:02.872Z,20.20
2022-09-15T01:11:02.884Z,21.80
2022-09-15T01:12:02.954Z,17.80
2022-09-15T01:13:02.858Z,18.40
2022-09-15T01:14:02.901Z,20.30
2022-09-15T01:15:02.854Z,18.90
2022-09-15T01:16:02.909Z,22.90
2022-09-15T01:17:02.973Z,23.20
2022-09-15T01:18:02.821Z,22.80
2022-09-15T01:19:02.887Z,23.10
2022-09-15T01:20:02.852Z,22.70
2022-09-15T01:21:02.803Z,16.40
2022-09-15T01:22:02.863Z,19.50
2022-09-15T01:23:02.874Z,28.30
2022-09-15T01:24:02.732Z,18.30
2022-09-15T01:25:02.759Z,24.30
2022-09-15T01:26:02.736Z,29.40
2022-09-15T01:27:13.842Z,22.30
2022-09-15T01:28:04.725Z,25.20
2022-09-15T01:29:02.727Z,25.00
2022-09-15T01:30:02.691Z,27.30
2022-09-15T01:31:02.719Z,26.60
2022-09-15T01:32:02.753Z,22.90
2022-09-15T01:33:02.749Z,23.80
2022-09-15T01:34:02.844Z,21.10
2022-09-15T01:35:02.675Z,23.90
2022-09-15T01:36:02.625Z,22.30
2022-09-15T01:37:02.607Z,23.80
2022-09-15T01:38:02.631Z,24.80
2022-09-15T01:39:02.596Z,24.90
2022-09-15T01:40:02.660Z,23.40
2022-09-15T01:41:02.548Z,24.10
2022-09-15T01:42:02.580Z,23.60
2022-09-15T01:43:02.547Z,31.00
2022-09-15T01:44:02.579Z,34.30
2022-09-15T01:45:02.531Z,26.70
2022-09-15T01:46:02.634Z,29.30
2022-09-15T01:47:02.653Z,30.80
2022-09-15T01:48:02.597Z,31.30
2022-09-15T01:49:02.528Z,24.40
2022-09-15T01:50:02.515Z,27.20
2022-09-15T01:51:02.450Z,23.40
2022-09-15T01:52:02.457Z,30.00
2022-09-15T01:53:02.496Z,27.10
2022-09-15T01:54:02.568Z,24.10
2022-09-15T01:55:02.448Z,29.50
2022-09-15T01:56:02.458Z,34.50
2022-09-15T01:57:02.432Z,31.30
2022-09-15T01:58:02.362Z,30.20
2022-09-15T01:59:02.332Z,28.70
2022-09-15T02:00:02.453Z,28.80
2022-09-15T02:01:02.451Z,26.60
2022-09-15T02:02:02.433Z,26.30
2022-09-15T02:03:02.341Z,28.80
2022-09-15T02:04:02.341Z,32.90
2022-09-15T02:05:02.294Z,26.50
2022-09-15T02:06:02.289Z,29.80
2022-09-15T02:07:02.288Z,32.10
2022-09-15T02:08:02.276Z,34.70
2022-09-15T02:09:02.273Z,33.00
2022-09-15T02:10:02.274Z,33.70
2022-09-15T02:11:02.205Z,35.90
2022-09-15T02:12:02.241Z,35.10
2022-09-15T02:13:02.229Z,29.60
2022-09-15T02:14:02.205Z,38.40
2022-09-15T02:15:02.177Z,39.30
2022-09-15T02:16:02.229Z,37.00
2022-09-15T02:17:02.219Z,34.10
2022-09-15T02:18:02.154Z,31.90
2022-09-15T02:19:02.171Z,37.80
2022-09-15T02:20:02.133Z,38.00
2022-09-15T02:21:02.133Z,40.90
2022-09-15T02:22:02.113Z,38.60
2022-09-15T02:23:02.166Z,39.40
2022-09-15T02:24:02.106Z,38.40
2022-09-15T02:25:02.066Z,40.90
2022-09-15T02:26:02.083Z,42.10
2022-09-15T02:27:02.076Z,49.20
2022-09-15T02:28:02.066Z,39.90
2022-09-15T02:29:02.030Z,38.90
2022-09-15T02:30:01.998Z,41.00
2022-09-15T02:31:02.059Z,50.10
2022-09-15T02:32:06.832Z,56.40
2022-09-15T02:33:03.981Z,61.50
2022-09-15T02:34:02.030Z,61.20
2022-09-15T02:35:02.005Z,62.70
2022-09-15T02:36:01.999Z,58.70
2022-09-15T02:37:02.056Z,63.60
2022-09-15T02:38:02.070Z,61.50
2022-09-15T02:39:02.219Z,60.10
2022-09-15T02:40:02.005Z,70.20
2022-09-15T02:41:01.942Z,58.20
2022-09-15T02:42:01.983Z,54.00
2022-09-15T02:43:02.053Z,65.70
2022-09-15T02:44:01.937Z,60.00
2022-09-15T02:45:01.900Z,65.50
2022-09-15T02:46:01.950Z,59.40
2022-09-15T02:47:01.847Z,62.70
2022-09-15T02:48:01.907Z,60.70
2022-09-15T02:49:01.806Z,62.20
2022-09-15T02:50:01.847Z,58.20
2022-09-15T02:51:01.850Z,66.80
2022-09-15T02:52:01.864Z,64.20
2022-09-15T02:53:01.830Z,63.30
2022-09-15T02:54:01.748Z,64.10
2022-09-15T02:55:01.780Z,62.90
2022-09-15T02:56:01.884Z,62.30
2022-09-15T02:57:01.820Z,63.50
2022-09-15T02:58:01.812Z,67.80
2022-09-15T02:59:01.771Z,64.00
2022-09-15T03:00:01.813Z,64.30
2022-09-15T03:01:01.783Z,69.30
2022-09-15T03:02:01.730Z,67.30
2022-09-15T03:03:01.700Z,75.40
2022-09-15T03:04:01.766Z,70.70
2022-09-15T03:05:01.665Z,69.30
2022-09-15T03:06:01.649Z,76.50
2022-09-15T03:07:01.753Z,77.20
2022-09-15T03:08:01.690Z,71.30
2022-09-15T03:09:01.709Z,78.90
2022-09-15T03:10:02.429Z,69.90
2022-09-15T03:11:01.678Z,85.50
2022-09-15T03:12:01.697Z,73.60
2022-09-15T03:13:01.622Z,70.20
2022-09-15T03:14:01.598Z,69.50
2022-09-15T03:15:01.615Z,69.90
2022-09-15T03:16:01.535Z,79.00
2022-09-15T03:17:01.553Z,67.90
2022-09-15T03:18:01.580Z,69.60
2022-09-15T03:19:01.546Z,65.20
2022-09-15T03:20:01.624Z,67.90
2022-09-15T03:21:01.529Z,62.50
2022-09-15T03:22:01.470Z,67.00
2022-09-15T03:23:01.483Z,63.70
2022-09-15T03:24:01.533Z,74.60
2022-09-15T03:25:01.511Z,78.60
2022-09-15T03:26:01.442Z,66.10
2022-09-15T03:27:01.474Z,73.40
2022-09-15T03:28:01.530Z,67.30
2022-09-15T03:29:01.391Z,73.00
2022-09-15T03:30:01.426Z,66.00
2022-09-15T03:31:01.403Z,67.30
2022-09-15T03:32:01.389Z,68.60
2022-09-15T03:33:01.318Z,70.90
2022-09-15T03:34:01.326Z,71.20
2022-09-15T03:35:01.436Z,70.20
2022-09-15T03:36:01.310Z,74.80
2022-09-15T03:37:01.322Z,75.00
2022-09-15T03:38:01.259Z,80.80
2022-09-15T03:39:01.315Z,71.50
2022-09-15T03:40:01.374Z,73.70
2022-09-15T03:41:01.289Z,77.70
2022-09-15T03:42:01.230Z,82.90
2022-09-15T03:43:01.241Z,78.40
2022-09-15T03:44:01.194Z,79.90
2022-09-15T03:45:01.227Z,87.10
2022-09-15T03:46:01.376Z,76.40
2022-09-15T03:47:01.215Z,73.00
2022-09-15T03:48:01.157Z,76.60
2022-09-15T03:49:01.156Z,77.00
2022-09-15T03:50:02.123Z,76.70
2022-09-15T03:51:01.164Z,76.30
2022-09-15T03:52:01.124Z,73.00
2022-09-15T03:53:01.168Z,75.60
2022-09-15T03:54:01.131Z,73.00
2022-09-15T03:55:01.084Z,73.00
2022-09-15T03:56:01.196Z,77.20
2022-09-15T03:57:01.087Z,77.90
2022-09-15T03:58:01.051Z,77.10
2022-09-15T03:59:01.024Z,85.80
2022-09-15T04:00:01.168Z,76.30
2022-09-15T04:01:01.110Z,89.40
2022-09-15T04:02:01.042Z,92.40
2022-09-15T04:03:01.056Z,87.40
2022-09-15T04:04:01.016Z,89.60
2022-09-15T04:05:00.954Z,92.50
2022-09-15T04:06:00.998Z,85.10
2022-09-15T04:07:00.980Z,92.70
2022-09-15T04:08:00.937Z,89.80
2022-09-15T04:09:00.944Z,81.70
2022-09-15T04:10:00.905Z,93.30
2022-09-15T04:11:00.972Z,88.30
2022-09-15T04:12:00.972Z,91.10
2022-09-15T04:13:00.905Z,98.60
2022-09-15T04:14:00.920Z,97.90
2022-09-15T04:15:00.888Z,88.90
2022-09-15T04:16:00.955Z,82.30
2022-09-15T04:17:00.862Z,79.90
2022-09-15T04:18:00.889Z,82.40
2022-09-15T04:19:00.829Z,82.60
2022-09-15T04:20:00.816Z,94.60
2022-09-15T04:21:00.817Z,81.70
2022-09-15T04:22:00.817Z,82.00
2022-09-15T04:23:00.813Z,78.90
2022-09-15T04:24:00.770Z,79.90
2022-09-15T04:25:00.777Z,76.90
2022-09-15T04:26:00.754Z,71.50
2022-09-15T04:27:00.760Z,69.40
2022-09-15T04:28:00.758Z,63.50
2022-09-15T04:29:04.199Z,58.10
2022-09-15T04:30:00.697Z,61.50
2022-09-15T04:31:00.724Z,64.50
2022-09-15T04:32:00.717Z,61.30
2022-09-15T04:33:00.717Z,56.70
2022-09-15T04:34:00.662Z,58.40
2022-09-15T04:35:00.841Z,58.70
2022-09-15T04:36:00.669Z,59.90
2022-09-15T04:37:00.631Z,65.20
2022-09-15T04:38:00.650Z,65.00
2022-09-15T04:39:00.613Z,56.50
2022-09-15T04:40:00.648Z,58.70
2022-09-15T04:41:00.629Z,53.10
2022-09-15T04:42:00.577Z,53.10
2022-09-15T04:43:00.545Z,56.10
2022-09-15T04:44:00.549Z,48.00
2022-09-15T04:45:00.553Z,54.10
2022-09-15T04:46:00.521Z,57.70
2022-09-15T04:47:00.666Z,54.70
2022-09-15T04:48:00.506Z,60.60
2022-09-15T04:49:00.562Z,56.70
2022-09-15T04:50:00.496Z,62.20
2022-09-15T04:51:00.505Z,66.90
2022-09-15T04:52:00.478Z,65.90
2022-09-15T04:53:00.529Z,63.70
2022-09-15T04:54:00.482Z,66.40
2022-09-15T04:55:00.437Z,62.90
2022-09-15T04:56:00.442Z,69.30
2022-09-15T04:57:00.398Z,76.80
2022-09-15T04:58:00.388Z,64.70
2022-09-15T04:59:03.785Z,66.60
2022-09-15T05:00:01.472Z,67.30
2022-09-15T05:01:00.467Z,74.10
2022-09-15T05:02:00.421Z,69.90
2022-09-15T05:03:00.332Z,71.80
2022-09-15T05:04:00.329Z,79.70
2022-09-15T05:05:00.313Z,76.10
2022-09-15T05:06:00.321Z,75.30
2022-09-15T05:07:00.299Z,77.10
2022-09-15T05:08:00.297Z,75.20
2022-09-15T05:09:00.331Z,71.30
2022-09-15T05:10:00.294Z,65.10
2022-09-15T05:11:00.251Z,74.50
2022-09-15T05:12:00.283Z,70.00
2022-09-15T05:13:00.258Z,71.30
2022-09-15T05:14:00.228Z,70.40
2022-09-15T05:15:00.242Z,68.70
2022-09-15T05:16:00.284Z,72.70
2022-09-15T05:17:00.209Z,79.60
2022-09-15T05:18:00.164Z,75.40
2022-09-15T05:19:00.191Z,69.60
2022-09-15T05:20:00.178Z,74.10
2022-09-15T05:21:00.154Z,76.80
2022-09-15T05:22:00.149Z,67.70
2022-09-15T05:23:00.151Z,84.10
2022-09-15T05:24:00.129Z,72.90
2022-09-15T05:25:00.138Z,75.90
2022-09-15T05:26:00.134Z,66.50
2022-09-15T05:27:00.097Z,84.10
2022-09-15T05:28:00.075Z,75.90
2022-09-15T05:29:00.033Z,77.90
2022-09-15T05:30:23.626Z,84.10
2022-09-15T05:31:02.102Z,90.70
2022-09-15T05:32:00.115Z,85.20
2022-09-15T05:33:00.029Z,92.70
2022-09-15T05:33:59.992Z,78.80
2022-09-15T05:35:00.022Z,74.10
2022-09-15T05:35:59.992Z,84.40
2022-09-15T05:36:59.940Z,75.10
2022-09-15T05:37:59.931Z,77.60
2022-09-15T05:38:59.927Z,84.00
2022-09-15T05:39:59.973Z,77.10
2022-09-15T05:40:59.966Z,75.00
2022-09-15T05:42:00.015Z,79.60
2022-09-15T05:42:59.881Z,78.10
2022-09-15T05:43:59.901Z,74.70
2022-09-15T05:44:59.927Z,81.50
2022-09-15T05:45:59.839Z,82.40
2022-09-15T05:46:59.935Z,76.00
2022-09-15T05:47:59.871Z,79.10
2022-09-15T05:48:59.811Z,89.10
2022-09-15T05:49:59.832Z,78.20
2022-09-15T05:50:59.817Z,89.20
2022-09-15T05:51:59.932Z,93.20
2022-09-15T05:52:59.776Z,76.40
2022-09-15T05:53:59.797Z,80.90
2022-09-15T05:54:59.759Z,83.90
2022-09-15T05:55:59.829Z,89.70
2022-09-15T05:56:59.770Z,85.00
2022-09-15T05:57:59.734Z,87.10
2022-09-15T05:58:59.746Z,94.50
2022-09-15T05:59:59.718Z,86.80
2022-09-15T06:00:59.699Z,94.60
2022-09-15T06:01:59.795Z,87.20
2022-09-15T06:02:59.719Z,87.20
2022-09-15T06:03:59.667Z,88.30
2022-09-15T06:04:59.659Z,94.50
2022-09-15T06:05:59.693Z,85.40
2022-09-15T06:06:59.634Z,82.60
2022-09-15T06:07:59.623Z,93.80
2022-09-15T06:08:59.794Z,80.50
2022-09-15T06:09:59.611Z,83.10
2022-09-15T06:10:59.604Z,86.30
2022-09-15T06:11:59.577Z,81.50
2022-09-15T06:12:59.559Z,85.30
2022-09-15T06:13:59.540Z,83.30
2022-09-15T06:14:59.525Z,83.90
2022-09-15T06:15:59.596Z,81.90
2022-09-15T06:16:59.549Z,76.90
2022-09-15T06:17:59.536Z,78.50
2022-09-15T06:18:59.516Z,76.70
2022-09-15T06:19:59.484Z,73.20
2022-09-15T06:20:59.464Z,80.30
2022-09-15T06:21:59.485Z,71.30
2022-09-15T06:22:59.574Z,74.00
2022-09-15T06:23:59.462Z,75.60
2022-09-15T06:24:59.431Z,74.70
2022-09-15T06:25:59.414Z,71.20
2022-09-15T06:26:59.398Z,71.10
2022-09-15T06:27:59.471Z,68.40
2022-09-15T06:28:59.429Z,65.10
2022-09-15T06:29:59.366Z,65.70
2022-09-15T06:30:59.374Z,64.90
2022-09-15T06:31:59.406Z,65.20
2022-09-15T06:32:59.358Z,60.30
2022-09-15T06:33:59.369Z,61.80
2022-09-15T06:35:00.214Z,60.70
2022-09-15T06:35:59.305Z,60.10
2022-09-15T06:36:59.306Z,66.20
2022-09-15T06:37:59.294Z,60.80
2022-09-15T06:38:59.294Z,60.20
2022-09-15T06:39:59.359Z,56.90
2022-09-15T06:40:59.293Z,73.40
2022-09-15T06:42:02.889Z,65.60
2022-09-15T06:43:00.260Z,62.70
2022-09-15T06:43:59.223Z,56.10
2022-09-15T06:44:59.222Z,54.30
2022-09-15T06:45:59.289Z,54.40
2022-09-15T06:46:59.214Z,54.40
2022-09-15T06:48:22.847Z,57.40
2022-09-15T06:49:00.173Z,59.30
2022-09-15T06:49:59.185Z,56.00
2022-09-15T06:50:59.154Z,53.30
2022-09-15T06:51:59.137Z,58.40
2022-09-15T06:52:59.109Z,58.80
2022-09-15T06:53:59.151Z,59.60
2022-09-15T06:54:59.134Z,54.90
2022-09-15T06:55:59.078Z,52.60
2022-09-15T06:56:59.069Z,52.70
2022-09-15T06:57:59.056Z,53.80
2022-09-15T06:58:59.030Z,52.10
2022-09-15T06:59:59.041Z,57.70
2022-09-15T07:00:59.039Z,59.30
2022-09-15T07:02:04.113Z,55.60
2022-09-15T07:03:01.094Z,56.40
2022-09-15T07:03:58.996Z,51.30
2022-09-15T07:04:58.995Z,51.00
2022-09-15T07:05:59.008Z,51.90
2022-09-15T07:06:58.975Z,48.50
2022-09-15T07:07:58.951Z,55.10
2022-09-15T07:08:58.911Z,50.10
2022-09-15T07:09:58.968Z,46.30
2022-09-15T07:10:58.918Z,44.80
2022-09-15T07:11:58.878Z,43.90
2022-09-15T07:12:59.889Z,47.70
2022-09-15T07:13:58.908Z,47.20
2022-09-15T07:14:58.890Z,50.80
2022-09-15T07:15:58.922Z,43.50
2022-09-15T07:16:58.845Z,45.40
2022-09-15T07:17:58.807Z,40.10
2022-09-15T07:18:58.801Z,49.40
2022-09-15T07:19:58.797Z,46.10
2022-09-15T07:20:58.790Z,45.10
2022-09-15T07:21:58.777Z,48.10
2022-09-15T07:22:58.775Z,49.10
2022-09-15T07:24:00.704Z,48.80
2022-09-15T07:24:59.761Z,45.50
2022-09-15T07:25:58.745Z,48.00
2022-09-15T07:26:58.731Z,44.50
2022-09-15T07:27:58.710Z,47.30
2022-09-15T07:28:58.686Z,47.50
2022-09-15T07:29:58.680Z,47.80
2022-09-15T07:30:58.675Z,48.50
2022-09-15T07:31:58.725Z,41.20
2022-09-15T07:32:58.674Z,40.90
2022-09-15T07:33:58.626Z,41.00
2022-09-15T07:34:58.691Z,38.70
2022-09-15T07:35:58.633Z,38.10
2022-09-15T07:36:58.623Z,43.30
2022-09-15T07:37:58.580Z,42.10
2022-09-15T07:38:58.620Z,40.30
2022-09-15T07:39:58.626Z,40.90
2022-09-15T07:40:58.537Z,38.60
2022-09-15T07:41:58.577Z,41.30
2022-09-15T07:42:58.525Z,38.20
2022-09-15T07:43:58.518Z,38.70
2022-09-15T07:44:58.510Z,40.20
2022-09-15T07:45:58.557Z,41.00
2022-09-15T07:46:58.490Z,33.90
2022-09-15T07:47:58.476Z,37.90
2022-09-15T07:48:58.464Z,35.30
2022-09-15T07:49:58.479Z,32.70
2022-09-15T07:50:58.462Z,29.70
2022-09-15T07:51:58.442Z,30.60
2022-09-15T07:52:58.426Z,24.40
2022-09-15T07:53:58.419Z,24.60
2022-09-15T07:54:58.393Z,22.90
2022-09-15T07:55:58.367Z,23.10
2022-09-15T07:56:58.415Z,23.50
2022-09-15T07:57:58.398Z,23.90
2022-09-15T07:58:58.342Z,22.60
2022-09-15T07:59:58.351Z,18.20
2022-09-15T08:00:58.380Z,24.90
2022-09-15T08:01:58.401Z,22.00
2022-09-15T08:02:58.297Z,19.90
2022-09-15T08:03:58.306Z,20.60
2022-09-15T08:04:58.298Z,19.80
2022-09-15T08:05:58.267Z,20.80
2022-09-15T08:06:58.277Z,17.00
2022-09-15T08:07:59.790Z,21.20
2022-09-15T08:09:00.759Z,18.10
2022-09-15T08:09:58.247Z,17.50
2022-09-15T08:10:58.230Z,19.90
2022-09-15T08:11:58.231Z,21.10
2022-09-15T08:12:58.183Z,18.40
2022-09-15T08:13:58.171Z,16.10
2022-09-15T08:14:58.187Z,16.20
2022-09-15T08:15:58.199Z,18.80
2022-09-15T08:16:58.155Z,16.00
2022-09-15T08:17:58.119Z,17.80
2022-09-15T08:18:58.308Z,21.30
2022-09-15T08:19:58.109Z,17.40
2022-09-15T08:20:58.688Z,16.70
2022-09-15T08:21:58.127Z,21.50
2022-09-15T08:22:58.127Z,20.70
2022-09-15T08:23:58.059Z,19.20
2022-09-15T08:24:58.856Z,18.30
2022-09-15T08:25:58.048Z,19.10
2022-09-15T08:26:58.835Z,19.70
2022-09-15T08:27:58.031Z,16.80
2022-09-15T08:28:58.008Z,19.70
2022-09-15T08:29:58.012Z,22.10
2022-09-15T08:30:58.017Z,21.30
2022-09-15T08:31:57.948Z,18.00
2022-09-15T08:32:57.939Z,19.50
2022-09-15T08:33:57.994Z,17.10
2022-09-15T08:34:58.008Z,18.10
2022-09-15T08:35:57.909Z,22.10
2022-09-15T08:36:57.920Z,20.50
2022-09-15T08:37:57.892Z,17.10
2022-09-15T08:38:57.909Z,15.10
2022-09-15T08:39:57.911Z,17.70
2022-09-15T08:40:57.841Z,19.70
2022-09-15T08:41:57.848Z,21.20
2022-09-15T08:42:57.836Z,19.10
2022-09-15T08:43:57.840Z,21.20
2022-09-15T08:44:57.889Z,18.80
2022-09-15T08:45:57.788Z,18.00
2022-09-15T08:46:57.825Z,18.00
2022-09-15T08:47:57.785Z,16.90
2022-09-15T08:49:02.045Z,23.90
2022-09-15T08:49:59.749Z,20.30
2022-09-15T08:50:57.737Z,22.80
2022-09-15T08:51:57.848Z,20.60
2022-09-15T08:52:57.718Z,17.00
2022-09-15T08:53:57.738Z,17.20
2022-09-15T08:54:57.855Z,20.20
2022-09-15T08:55:57.681Z,18.30
2022-09-15T08:57:00.224Z,18.00
2022-09-15T08:57:59.119Z,19.40
2022-09-15T08:58:57.612Z,18.90
2022-09-15T08:59:57.621Z,21.50
2022-09-15T09:00:57.650Z,19.50
2022-09-15T09:01:57.676Z,19.80
2022-09-15T09:02:57.682Z,20.50
2022-09-15T09:03:57.565Z,19.40
2022-09-15T09:04:57.690Z,18.20
2022-09-15T09:05:57.562Z,20.30
2022-09-15T09:06:57.546Z,23.60
2022-09-15T09:07:57.538Z,21.20
2022-09-15T09:08:58.202Z,19.70
2022-09-15T09:09:57.514Z,23.50
2022-09-15T09:10:57.562Z,23.50
2022-09-15T09:11:57.495Z,22.00
2022-09-15T09:12:57.460Z,22.90
2022-09-15T09:13:57.489Z,21.40
2022-09-15T09:14:58.312Z,24.60
2022-09-15T09:15:57.556Z,20.50
2022-09-15T09:16:57.500Z,22.40
2022-09-15T09:17:57.430Z,23.50
2022-09-15T09:18:57.461Z,20.90
2022-09-15T09:19:57.395Z,28.70
2022-09-15T09:20:57.395Z,22.30
2022-09-15T09:21:57.464Z,25.00
2022-09-15T09:22:57.348Z,21.60
2022-09-15T09:23:57.365Z,22.00
2022-09-15T09:24:57.318Z,20.20
2022-09-15T09:25:57.318Z,22.00
2022-09-15T09:26:57.312Z,23.40
2022-09-15T09:27:57.279Z,18.90
2022-09-15T09:28:57.302Z,22.80
2022-09-15T09:29:57.332Z,20.70
2022-09-15T09:30:57.350Z,20.50
2022-09-15T09:31:57.228Z,20.20
2022-09-15T09:32:57.312Z,16.90
2022-09-15T09:33:57.250Z,20.10
2022-09-15T09:34:57.264Z,16.70
2022-09-15T09:35:57.201Z,18.60
2022-09-15T09:36:57.203Z,17.70
2022-09-15T09:37:57.197Z,17.10
2022-09-15T09:38:57.160Z,15.70
2022-09-15T09:39:57.168Z,17.40
2022-09-15T09:41:01.879Z,13.60
2022-09-15T09:41:59.172Z,20.50
2022-09-15T09:42:57.140Z,16.80
2022-09-15T09:43:57.095Z,15.70
2022-09-15T09:44:57.120Z,14.80
2022-09-15T09:45:57.207Z,17.30
2022-09-15T09:46:57.106Z,17.40
2022-09-15T09:48:00.894Z,18.30
2022-09-15T09:48:58.136Z,15.90
2022-09-15T09:49:57.002Z,16.60
2022-09-15T09:50:57.012Z,13.40
2022-09-15T09:51:56.988Z,15.70
2022-09-15T09:52:57.004Z,13.30
2022-09-15T09:53:56.996Z,14.70
2022-09-15T09:54:57.013Z,16.40
2022-09-15T09:55:56.969Z,13.10
2022-09-15T09:56:57.026Z,15.10
2022-09-15T09:57:57.174Z,14.80
2022-09-15T09:58:56.909Z,15.10
2022-09-15T09:59:56.914Z,15.10
2022-09-15T10:00:56.897Z,12.00
2022-09-15T10:01:57.678Z,13.70
2022-09-15T10:02:56.885Z,14.20
2022-09-15T10:03:56.869Z,11.00
2022-09-15T10:04:58.055Z,13.40
2022-09-15T10:05:56.885Z,13.00
2022-09-15T10:06:56.797Z,9.70
2022-09-15T10:07:56.813Z,12.60
2022-09-15T10:08:56.806Z,17.70
2022-09-15T10:09:56.804Z,12.20
2022-09-15T10:10:56.782Z,12.10
2022-09-15T10:11:56.817Z,10.40
2022-09-15T10:12:56.767Z,15.80
2022-09-15T10:13:56.768Z,14.30
2022-09-15T10:14:56.954Z,12.00
2022-09-15T10:15:56.665Z,11.50
2022-09-15T10:16:56.776Z,12.10
2022-09-15T10:17:56.690Z,13.50
2022-09-15T10:18:56.718Z,17.40
2022-09-15T10:19:56.666Z,13.80
2022-09-15T10:20:56.645Z,8.90
2022-09-15T10:21:57.271Z,11.30
2022-09-15T10:22:56.695Z,10.40
2022-09-15T10:23:56.658Z,9.90
2022-09-15T10:24:56.930Z,10.90
2022-09-15T10:25:59.538Z,10.80
2022-09-15T10:26:57.617Z,11.10
2022-09-15T10:27:56.587Z,11.00
2022-09-15T10:28:56.713Z,12.20
2022-09-15T10:29:56.696Z,10.30
2022-09-15T10:30:56.550Z,14.30
2022-09-15T10:31:57.319Z,9.30
2022-09-15T10:32:56.518Z,14.20
2022-09-15T10:33:56.533Z,12.40
2022-09-15T10:34:56.482Z,11.90
2022-09-15T10:35:56.585Z,8.90
2022-09-15T10:36:56.506Z,11.20
2022-09-15T10:37:56.453Z,9.10
2022-09-15T10:38:56.484Z,8.50
2022-09-15T10:39:56.532Z,6.60
2022-09-15T10:40:56.538Z,8.10
2022-09-15T10:41:56.448Z,7.60
2022-09-15T10:42:56.453Z,12.50
2022-09-15T10:43:56.388Z,8.30
2022-09-15T10:44:56.396Z,12.10
2022-09-15T10:45:56.729Z,5.30
2022-09-15T10:46:56.440Z,8.20
2022-09-15T10:47:56.368Z,9.00
2022-09-15T10:48:57.393Z,12.20
2022-09-15T10:49:56.424Z,10.20
2022-09-15T10:50:56.324Z,9.90
2022-09-15T10:51:56.356Z,11.30
2022-09-15T10:52:56.316Z,7.60
2022-09-15T10:53:57.638Z,8.60
2022-09-15T10:54:57.344Z,7.30
2022-09-15T10:55:56.265Z,5.40
2022-09-15T10:56:56.344Z,9.40
2022-09-15T10:57:56.286Z,8.40
2022-09-15T10:58:57.112Z,9.20
2022-09-15T10:59:56.411Z,6.30
2022-09-15T11:00:56.305Z,5.50
2022-09-15T11:01:56.265Z,4.60
2022-09-15T11:02:56.196Z,7.20
2022-09-15T11:03:56.155Z,6.90
2022-09-15T11:04:56.184Z,10.10
2022-09-15T11:05:56.138Z,8.80
2022-09-15T11:06:56.189Z,4.90
2022-09-15T11:07:56.189Z,5.90
2022-09-15T11:08:56.157Z,6.60
2022-09-15T11:09:56.073Z,8.00
2022-09-15T11:10:56.083Z,5.10
2022-09-15T11:11:56.090Z,7.90
2022-09-15T11:12:58.576Z,8.80
2022-09-15T11:13:56.094Z,6.70
2022-09-15T11:14:56.119Z,6.60
2022-09-15T11:15:56.147Z,5.30
2022-09-15T11:16:56.705Z,7.50
2022-09-15T11:17:56.008Z,6.70
2022-09-15T11:18:56.068Z,5.60
2022-09-15T11:19:56.013Z,6.80
2022-09-15T11:20:55.991Z,6.30
2022-09-15T11:21:56.363Z,5.50
2022-09-15T11:22:56.016Z,7.40
2022-09-15T11:23:55.964Z,7.10
2022-09-15T11:24:55.932Z,8.90
2022-09-15T11:25:55.992Z,7.70
2022-09-15T11:26:55.934Z,5.90
2022-09-15T11:27:55.985Z,6.60
2022-09-15T11:28:55.923Z,4.50
2022-09-15T11:29:55.880Z,4.80
2022-09-15T11:30:56.731Z,5.70
2022-09-15T11:31:56.070Z,4.40
2022-09-15T11:32:57.990Z,5.90
2022-09-15T11:33:55.856Z,6.20
2022-09-15T11:34:55.804Z,7.10
2022-09-15T11:35:55.808Z,3.90
2022-09-15T11:36:55.808Z,5.20
2022-09-15T11:37:56.000Z,5.40
2022-09-15T11:38:55.792Z,5.70
2022-09-15T11:39:55.876Z,7.90
2022-09-15T11:40:55.831Z,7.20
2022-09-15T11:41:55.742Z,4.70
2022-09-15T11:42:55.749Z,4.40
2022-09-15T11:43:55.716Z,4.20
2022-09-15T11:44:55.735Z,4.90
2022-09-15T11:45:55.770Z,4.30
2022-09-15T11:46:55.854Z,4.60
2022-09-15T11:47:56.871Z,5.80
2022-09-15T11:48:55.726Z,8.50
2022-09-15T11:49:55.706Z,3.40
2022-09-15T11:50:55.693Z,4.80
2022-09-15T11:51:55.652Z,4.30
2022-09-15T11:52:55.680Z,6.70
2022-09-15T11:53:55.678Z,5.50
2022-09-15T11:54:55.621Z,5.10
2022-09-15T11:55:55.749Z,5.00
2022-09-15T11:56:55.623Z,3.70
2022-09-15T11:57:55.651Z,7.40
2022-09-15T11:58:55.815Z,4.60
2022-09-15T11:59:55.554Z,6.40
2022-09-15T12:00:55.581Z,4.90
2022-09-15T12:01:55.605Z,5.90
2022-09-15T12:02:55.566Z,7.60
2022-09-15T12:03:55.566Z,5.80
2022-09-15T12:04:55.537Z,6.80
2022-09-15T12:05:56.221Z,9.70
2022-09-15T12:06:55.537Z,4.20
2022-09-15T12:07:56.393Z,6.70
2022-09-15T12:08:55.435Z,6.80
2022-09-15T12:09:55.446Z,5.60
2022-09-15T12:10:55.444Z,8.20
2022-09-15T12:11:55.395Z,8.60
2022-09-15T12:12:55.445Z,6.10
2022-09-15T12:13:55.403Z,6.00
2022-09-15T12:14:55.606Z,5.00
2022-09-15T12:15:55.409Z,5.70
2022-09-15T12:16:55.373Z,3.80
2022-09-15T12:17:55.480Z,6.40
2022-09-15T12:18:55.344Z,7.70
2022-09-15T12:19:55.362Z,6.30
2022-09-15T12:20:55.300Z,8.10
2022-09-15T12:21:55.336Z,5.90
2022-09-15T12:22:55.397Z,8.30
2022-09-15T12:23:55.405Z,6.90
2022-09-15T12:24:58.871Z,8.30
2022-09-15T12:25:57.299Z,8.70
2022-09-15T12:26:55.293Z,4.20
2022-09-15T12:27:55.250Z,7.30
2022-09-15T12:28:55.351Z,5.90
2022-09-15T12:29:55.786Z,6.90
2022-09-15T12:30:55.239Z,5.70
2022-09-15T12:31:55.203Z,5.00
2022-09-15T12:32:55.916Z,10.30
2022-09-15T12:33:55.210Z,7.00
2022-09-15T12:34:55.848Z,4.70
2022-09-15T12:35:55.176Z,5.90
2022-09-15T12:36:55.201Z,7.10
2022-09-15T12:37:55.152Z,6.70
2022-09-15T12:38:55.288Z,8.30
2022-09-15T12:39:55.267Z,6.70
2022-09-15T12:40:55.116Z,7.50
2022-09-15T12:41:55.179Z,9.30
2022-09-15T12:42:55.080Z,6.70
2022-09-15T12:43:56.077Z,5.50
2022-09-15T12:44:56.125Z,6.40
2022-09-15T12:45:55.015Z,5.10
2022-09-15T12:46:55.207Z,7.80
2022-09-15T12:47:55.018Z,4.40
2022-09-15T12:48:55.041Z,7.50
2022-09-15T12:49:55.825Z,4.50
2022-09-15T12:50:55.005Z,7.40
2022-09-15T12:51:55.608Z,6.60
2022-09-15T12:52:54.972Z,5.80
2022-09-15T12:53:54.980Z,5.40
2022-09-15T12:54:55.555Z,5.50
2022-09-15T12:55:54.928Z,5.60
2022-09-15T12:56:54.972Z,5.70